Terminal Aerodrome Forecast
Issued by NWS

Home | Current Version | Previous Version | Text Only | Print | Product List | Glossary On
Versions: 1 2 3 4 5 6 7 8 9 10 11 12
000
FTUS45 KRIW 211124
TAFBPI
TAF
KBPI 211124Z 2112/2212 22014KT 6SM -RA SCT024 OVC040
     FM211800 24012G22KT P6SM VCSH OVC026
     FM220200 28015KT 2SM -SN OVC018
     FM220600 30013KT 5SM -SN OVC025
     FM220900 30009KT P6SM BKN050=

USA.gov is the U.S. government's official web portal to all federal, state and local government web resources and services.